N482VX KAHC-MMCU
Flight info
| Callsign | N482VX |
|---|---|
| Flight time | N/A |
| Altitude | 41000 |
| Route | FMG J92 BTY J86 FUZZY DCT PXR DCT VIXER VIXER1B |
| Aircraft | C700/M-SBDGHM1RWXY/LB2 |
Departure
| Time | N/A |
|---|---|
| Airport | Amedee Army Air Field (KAHC) |
Arrival
| Time | 2026-04-23 21:06 |
|---|---|
| Airport | General Roberto Fierro Villalobos International Airport (MMCU) |
| Time | Latitude | Longitude | Altitude | Speed | Heading |
|---|---|---|---|---|---|
| 2026-04-23 20:40 | 30.01301 | -107.99356 | 44905 ft | 520 kts | 146° |
| 2026-04-23 20:40 | 29.96104 | -107.93630 | 44897 ft | 520 kts | 146° |
| 2026-04-23 20:41 | 29.90845 | -107.87858 | 44124 ft | 525 kts | 145° |
| 2026-04-23 20:41 | 29.88206 | -107.84955 | 43437 ft | 522 kts | 145° |
| 2026-04-23 20:41 | 29.85598 | -107.82082 | 42751 ft | 516 kts | 145° |
| 2026-04-23 20:42 | 29.83011 | -107.79245 | 42076 ft | 511 kts | 146° |
| 2026-04-23 20:42 | 29.80439 | -107.76435 | 41406 ft | 507 kts | 146° |
| 2026-04-23 20:42 | 29.77894 | -107.73652 | 40749 ft | 504 kts | 146° |
| 2026-04-23 20:42 | 29.75367 | -107.70885 | 40089 ft | 502 kts | 146° |
| 2026-04-23 20:43 | 29.72832 | -107.68115 | 39427 ft | 503 kts | 146° |
| 2026-04-23 20:43 | 29.70290 | -107.65342 | 38764 ft | 505 kts | 146° |
| 2026-04-23 20:43 | 29.67727 | -107.62547 | 38045 ft | 509 kts | 146° |
| 2026-04-23 20:43 | 29.65155 | -107.59738 | 37355 ft | 509 kts | 146° |
| 2026-04-23 20:44 | 29.62586 | -107.56933 | 36713 ft | 513 kts | 145° |
| 2026-04-23 20:44 | 29.59967 | -107.54093 | 36024 ft | 521 kts | 145° |
| 2026-04-23 20:44 | 29.57324 | -107.51220 | 35333 ft | 525 kts | 144° |
| 2026-04-23 20:44 | 29.54679 | -107.48330 | 34642 ft | 525 kts | 144° |
| 2026-04-23 20:45 | 29.52033 | -107.45447 | 33945 ft | 524 kts | 144° |
| 2026-04-23 20:45 | 29.49383 | -107.42577 | 33213 ft | 522 kts | 144° |
| 2026-04-23 20:45 | 29.46752 | -107.39727 | 32518 ft | 518 kts | 144° |
| 2026-04-23 20:45 | 29.44135 | -107.36886 | 31839 ft | 518 kts | 143° |
| 2026-04-23 20:46 | 29.41511 | -107.34044 | 31152 ft | 520 kts | 143° |
| 2026-04-23 20:46 | 29.38874 | -107.31193 | 30466 ft | 522 kts | 143° |
| 2026-04-23 20:46 | 29.36226 | -107.28327 | 29740 ft | 524 kts | 143° |
| 2026-04-23 20:46 | 29.33589 | -107.25471 | 29032 ft | 518 kts | 142° |
| 2026-04-23 20:47 | 29.30989 | -107.22656 | 28349 ft | 509 kts | 142° |
| 2026-04-23 20:47 | 29.28433 | -107.19900 | 27685 ft | 501 kts | 142° |
| 2026-04-23 20:47 | 29.25943 | -107.17221 | 27034 ft | 494 kts | 142° |
| 2026-04-23 20:47 | 29.23506 | -107.14478 | 26382 ft | 490 kts | 137° |
| 2026-04-23 20:48 | 29.21347 | -107.11453 | 25742 ft | 488 kts | 133° |
| 2026-04-23 20:48 | 29.19213 | -107.08465 | 25101 ft | 483 kts | 134° |
| 2026-04-23 20:48 | 29.17075 | -107.05527 | 24468 ft | 479 kts | 134° |
| 2026-04-23 20:48 | 29.14970 | -107.02598 | 23918 ft | 474 kts | 134° |
| 2026-04-23 20:49 | 29.12898 | -106.99682 | 23878 ft | 477 kts | 134° |
| 2026-04-23 20:49 | 29.10756 | -106.96707 | 23879 ft | 488 kts | 134° |
| 2026-04-23 20:49 | 29.08603 | -106.93721 | 23882 ft | 485 kts | 134° |
| 2026-04-23 20:49 | 29.06477 | -106.90754 | 23866 ft | 474 kts | 134° |
| 2026-04-23 20:50 | 29.04502 | -106.87980 | 22197 ft | 437 kts | 134° |
| 2026-04-23 20:50 | 29.02608 | -106.85367 | 20599 ft | 414 kts | 134° |
| 2026-04-23 20:50 | 29.00830 | -106.82915 | 19414 ft | 388 kts | 133° |
| 2026-04-23 20:50 | 28.99115 | -106.80537 | 19022 ft | 394 kts | 133° |
| 2026-04-23 20:51 | 28.97309 | -106.78047 | 18500 ft | 416 kts | 133° |
| 2026-04-23 20:51 | 28.95462 | -106.75484 | 17933 ft | 418 kts | 132° |
| 2026-04-23 20:51 | 28.93636 | -106.72938 | 17868 ft | 416 kts | 132° |
| 2026-04-23 20:51 | 28.91756 | -106.70346 | 17873 ft | 427 kts | 133° |
| 2026-04-23 20:52 | 28.89890 | -106.67774 | 17585 ft | 422 kts | 132° |
| 2026-04-23 20:52 | 28.88049 | -106.65219 | 17166 ft | 412 kts | 132° |
| 2026-04-23 20:52 | 28.86242 | -106.62720 | 16736 ft | 405 kts | 133° |
| 2026-04-23 20:52 | 28.84457 | -106.60261 | 16316 ft | 400 kts | 132° |
| 2026-04-23 20:53 | 28.82691 | -106.57832 | 15896 ft | 397 kts | 132° |
| 2026-04-23 20:53 | 28.80939 | -106.55415 | 15481 ft | 394 kts | 132° |
| 2026-04-23 20:53 | 28.79195 | -106.53011 | 15068 ft | 393 kts | 132° |
| 2026-04-23 20:53 | 28.77448 | -106.50607 | 14657 ft | 393 kts | 132° |
| 2026-04-23 20:54 | 28.75705 | -106.48211 | 14248 ft | 391 kts | 132° |
| 2026-04-23 20:54 | 28.73974 | -106.45826 | 13830 ft | 390 kts | 131° |
| 2026-04-23 20:54 | 28.72265 | -106.43466 | 13400 ft | 377 kts | 131° |
| 2026-04-23 20:54 | 28.70626 | -106.41241 | 12927 ft | 354 kts | 149° |
| 2026-04-23 20:55 | 28.68637 | -106.39985 | 12672 ft | 307 kts | 187° |
| 2026-04-23 20:55 | 28.66429 | -106.39964 | 12140 ft | 337 kts | 206° |
| 2026-04-23 20:55 | 28.64323 | -106.41098 | 12375 ft | 329 kts | 232° |
| 2026-04-23 20:55 | 28.63002 | -106.43248 | 11560 ft | 328 kts | 254° |
| 2026-04-23 20:56 | 28.62217 | -106.44699 | 11347 ft | 310 kts | 251° |
| 2026-04-23 20:56 | 28.60966 | -106.46655 | 10664 ft | 318 kts | 237° |
| 2026-04-23 20:56 | 28.59559 | -106.48592 | 9886 ft | 322 kts | 222° |
| 2026-04-23 20:57 | 28.57648 | -106.49848 | 9085 ft | 326 kts | 200° |
| 2026-04-23 20:57 | 28.55409 | -106.50038 | 8783 ft | 320 kts | 176° |
| 2026-04-23 20:57 | 28.53373 | -106.49232 | 8778 ft | 305 kts | 151° |
| 2026-04-23 20:57 | 28.51851 | -106.47633 | 8775 ft | 297 kts | 128° |
| 2026-04-23 20:58 | 28.50984 | -106.45477 | 8767 ft | 307 kts | 103° |
| 2026-04-23 20:58 | 28.50932 | -106.43066 | 8768 ft | 308 kts | 79° |
| 2026-04-23 20:58 | 28.51408 | -106.40680 | 8783 ft | 310 kts | 76° |
| 2026-04-23 20:58 | 28.51912 | -106.38290 | 8780 ft | 312 kts | 76° |
| 2026-04-23 20:59 | 28.52397 | -106.35899 | 8769 ft | 307 kts | 77° |
| 2026-04-23 20:59 | 28.52870 | -106.33550 | 8764 ft | 304 kts | 76° |
| 2026-04-23 20:59 | 28.53346 | -106.31210 | 8770 ft | 304 kts | 77° |
| 2026-04-23 20:59 | 28.53828 | -106.28872 | 8786 ft | 303 kts | 75° |
| 2026-04-23 21:00 | 28.54298 | -106.26539 | 8806 ft | 305 kts | 76° |
| 2026-04-23 21:00 | 28.54769 | -106.24173 | 8820 ft | 308 kts | 77° |
| 2026-04-23 21:00 | 28.55250 | -106.21791 | 8846 ft | 310 kts | 76° |
| 2026-04-23 21:00 | 28.55730 | -106.19427 | 8877 ft | 300 kts | 76° |
| 2026-04-23 21:01 | 28.56178 | -106.17167 | 8863 ft | 284 kts | 77° |
| 2026-04-23 21:01 | 28.56323 | -106.14989 | 8872 ft | 270 kts | 94° |
| 2026-04-23 21:01 | 28.56039 | -106.12963 | 8884 ft | 250 kts | 102° |
| 2026-04-23 21:01 | 28.55722 | -106.11052 | 8848 ft | 243 kts | 101° |
| 2026-04-23 21:02 | 28.55429 | -106.09140 | 8625 ft | 249 kts | 101° |
| 2026-04-23 21:02 | 28.55106 | -106.07178 | 8325 ft | 254 kts | 102° |
| 2026-04-23 21:02 | 28.54778 | -106.05219 | 7998 ft | 250 kts | 101° |
| 2026-04-23 21:02 | 28.54513 | -106.03288 | 7670 ft | 243 kts | 92° |
| 2026-04-23 21:03 | 28.54873 | -106.01481 | 7369 ft | 238 kts | 62° |
| 2026-04-23 21:03 | 28.55867 | -106.00016 | 7061 ft | 234 kts | 39° |
| 2026-04-23 21:03 | 28.57311 | -105.99219 | 6765 ft | 230 kts | 13° |
| 2026-04-23 21:03 | 28.58879 | -105.98854 | 6501 ft | 230 kts | 8° |
| 2026-04-23 21:04 | 28.60430 | -105.98520 | 6183 ft | 220 kts | 9° |
| 2026-04-23 21:04 | 28.61834 | -105.98195 | 5990 ft | 186 kts | 8° |
| 2026-04-23 21:04 | 28.63023 | -105.97948 | 5798 ft | 167 kts | 8° |
| 2026-04-23 21:04 | 28.64171 | -105.97697 | 5612 ft | 169 kts | 8° |
| 2026-04-23 21:05 | 28.65317 | -105.97451 | 5370 ft | 167 kts | 9° |
| 2026-04-23 21:05 | 28.66444 | -105.97196 | 5099 ft | 163 kts | 8° |
| 2026-04-23 21:05 | 28.67547 | -105.96960 | 4807 ft | 162 kts | 8° |
| 2026-04-23 21:05 | 28.68628 | -105.96703 | 4567 ft | 158 kts | 8° |
| 2026-04-23 21:06 | 28.69634 | -105.96502 | 4452 ft | 129 kts | 11° |
| 2026-04-23 21:06 | 28.70037 | -105.96414 | 4438 ft | 8 kts | 10° |
| 2026-04-23 21:06 | 28.70124 | -105.96392 | 4437 ft | 18 kts | 11° |
| 2026-04-23 21:06 | 28.70175 | -105.96393 | 4434 ft | 2 kts | 251° |
| 2026-04-23 21:07 | 28.70153 | -105.96430 | 4436 ft | 7 kts | 235° |
| 2026-04-23 21:07 | 28.70121 | -105.96482 | 4438 ft | 8 kts | 233° |
| 2026-04-23 21:07 | 28.70088 | -105.96544 | 4441 ft | 4 kts | 257° |
| 2026-04-23 21:07 | 28.70096 | -105.96546 | 4441 ft | 1 kts | 28° |
| 2026-04-23 21:08 | 28.70118 | -105.96517 | 4440 ft | 9 kts | 27° |
| 2026-04-23 21:08 | 28.70185 | -105.96539 | 4439 ft | 13 kts | 341° |
| 2026-04-23 21:08 | 28.70284 | -105.96585 | 4437 ft | 13 kts | 311° |
| 2026-04-23 21:08 | 28.70291 | -105.96638 | 4437 ft | 8 kts | 283° |
| 2026-04-23 21:09 | 28.70302 | -105.96701 | 4437 ft | 5 kts | 281° |
| 2026-04-23 21:09 | 28.70291 | -105.96738 | 4437 ft | 4 kts | 200° |
| 2026-04-23 21:09 | 28.70260 | -105.96746 | 4438 ft | 6 kts | 193° |
| 2026-04-23 21:09 | 28.70248 | -105.96768 | 4439 ft | 5 kts | 267° |
| 2026-04-23 21:10 | 28.70234 | -105.96797 | 4439 ft | 5 kts | 204° |
| 2026-04-23 21:10 | 28.70196 | -105.96805 | 4440 ft | 7 kts | 190° |
| 2026-04-23 21:10 | 28.70175 | -105.96821 | 4441 ft | 3 kts | 256° |
| 2026-04-23 21:10 | 28.70171 | -105.96838 | 4441 ft | 1 kts | 222° |
| 2026-04-23 21:11 | 28.70167 | -105.96840 | 4441 ft | 1 kts | 207° |
| 2026-04-23 21:11 | 28.70161 | -105.96841 | 4441 ft | 0 kts | 189° |
| 2026-04-23 21:11 | 28.70157 | -105.96842 | 4441 ft | 0 kts | 189° |